Centerbrook, CT (06409)

8:43 PM EDT on September 20, 2014 (GMT -0400)
Essex Elementary School | Change Station
CLOSE
Current Station
Personal Weather Station
Location: Centerbrook, CT
Elevation: 89 ft
Nearby Weather Stations

Elev 89 ft 41.35 °N, 72.42 °W | Updated 2 seconds ago

Clear
Clear
63.2 °F
Feels Like 63.2 °F
N
0.0
Wind Variable Wind from South
Gusts 0.0 mph

Today
High -- | Low -- °F
--% Chance of Precip.
Yesterday
High -- | Low -- °F
Precip. -- in
6:35 AM 6:50 PM
Waning Crescent, 9% visible
Pressure 30.16 in
Visibility 10.0 miles
Clouds Clear
Dew Point 59 °F
Humidity 85%
Rainfall 0.00 in
Snow Depth Not available.
UV 0 out of 12
Pollen 2.70 out of 12
Air Quality Not available.
Flu Activity Not available.
METAR KSNC 210015Z AUTO 18005KT 10SM CLR 17/15 A3016 RMK AO2

More Conditions Fewer Conditions

Pressure 30.16 in
Visibility 10.0 miles
Clouds Clear
Dew Point 59 °F
Humidity 85%
Rainfall 0.00 in
Snow Depth Not available.
UV 0 out of 12
Pollen 2.70 out of 12
Air Quality Not available.
Flu Activity Not available.
METAR KSNC 210015Z AUTO 18005KT 10SM CLR 17/15 A3016 RMK AO2

More Conditions Fewer Conditions

10-Day Weather Forecast

Almanac

Astronomy

Sep. 20, 2014 Rise Set
Actual Time 6:35 AM EDT 6:50 PM EDT
Civil Twilight 6:07 AM EDT 7:17 PM EDT
Nautical Twilight 5:35 AM EDT 7:50 PM EDT
Astronomical Twilight 5:01 AM EDT 8:23 PM EDT
Moon 3:09 AM EDT (9/20) 4:53 PM EDT (9/20)
Length of Visible Light 13h 10m
Length of Day
12h 15m
Tomorrow will be 2m 43s shorter.
Waning Crescent, 9% of the Moon is Illuminated
Today
Waning Crescent
Sep 24
New
Oct 1
First Quarter
Oct 8
Full
Oct 15
Last Quarter

Today's Extremes

State Highs State Lows

Community

WunderPhotos

Upload Photos

1,755,000 photos uploaded!

WunderBlogs® & News

Nearby

Air Quality

  Air Quality AQ Index Pollutant
Saturday Good
OZONE
Saturday Good
PM2.5
Sunday Good
OZONE
Sunday Good
PM2.5
Monday Good
OZONE
Monday Good
PM2.5

Snow Depth

Station Depth Elevation
No new snow has been reported.

Earthquake Activity

City Distance Mag. Time & Date
No recent earthquake activity has been reported nearby.
Minimum magnitude displayed is 2.5.

Coastal Water Temperatures

Place Temperature
New London, CT 66.9 °F
Newport, RI 66.9 °F
Quonset Point, RI 68.0 °F
Conimicut Light, RI 68.0 °F
Providence, RI 66.9 °F

Nearby Weather Stations